Time;durP1;ratioP1;P1;durP2;ratioP2;P2;SDS_P1;SDS_P2;PMS_P1;PMS_P2;Temp;Humidity;BMP_temperature;BMP_pressure;BME280_temperature;BME280_humidity;BME280_pressure;Samples;Min_cycle;Max_cycle;Signal;HPM_P1;HPM_P2
2022/02/25 00:00:38;;;;;;;0.90;0.90;;;-2.00;99.90;;;;;;5111566;27;20212;-81
2022/02/25 00:03:05;;;;;;;0.77;0.77;;;-2.20;99.90;;;;;;5108533;28;20624;-82
2022/02/25 00:05:31;;;;;;;0.80;0.80;;;-2.20;99.90;;;;;;5112817;27;20682;-81
2022/02/25 00:07:57;;;;;;;0.90;0.90;;;-2.20;99.90;;;;;;5121045;27;20202;-81
2022/02/25 00:10:23;;;;;;;1.25;1.17;;;-2.20;99.90;;;;;;5123625;27;20568;-81
2022/02/25 00:12:49;;;;;;;0.68;0.68;;;-2.20;99.90;;;;;;5114306;27;20211;-83
2022/02/25 00:15:18;;;;;;;0.80;0.80;;;-2.20;99.90;;;;;;5110148;28;20199;-81
2022/02/25 00:17:44;;;;;;;0.80;0.80;;;-2.20;99.90;;;;;;5112327;28;20554;-81
2022/02/25 00:20:12;;;;;;;0.90;0.90;;;-2.20;99.90;;;;;;5110055;28;20234;-81
2022/02/25 00:22:38;;;;;;;0.90;0.90;;;-2.40;99.90;;;;;;5109902;28;20200;-81
2022/02/25 00:25:04;;;;;;;0.80;0.80;;;-2.40;99.90;;;;;;5109678;28;20203;-81
2022/02/25 00:27:30;;;;;;;0.90;0.90;;;-2.40;99.90;;;;;;5109491;28;20298;-81
2022/02/25 00:29:59;;;;;;;0.90;0.90;;;-2.40;99.90;;;;;;5127911;28;20274;-81
2022/02/25 00:32:25;;;;;;;0.90;0.90;;;-2.40;99.90;;;;;;5109764;28;20222;-81
2022/02/25 00:34:50;;;;;;;0.70;0.70;;;-2.50;99.90;;;;;;5109743;28;20694;-81
2022/02/25 00:37:16;;;;;;;0.75;0.75;;;-2.50;99.90;;;;;;5126797;28;20591;-81
2022/02/25 00:39:42;;;;;;;0.70;0.70;;;-2.40;99.90;;;;;;5119559;28;20230;-81
2022/02/25 00:42:10;;;;;;;0.80;0.80;;;-2.40;99.90;;;;;;5127607;28;20297;-81
2022/02/25 00:44:37;;;;;;;0.82;0.82;;;-2.40;99.90;;;;;;5126449;28;20241;-82
2022/02/25 00:47:03;;;;;;;0.70;0.70;;;-2.40;99.90;;;;;;5122263;28;20681;-81
2022/02/25 00:49:29;;;;;;;0.90;0.90;;;-2.40;99.90;;;;;;5109454;28;20251;-81
2022/02/25 00:51:55;;;;;;;0.80;0.80;;;-2.40;99.90;;;;;;5128041;28;20286;-81
2022/02/25 00:54:20;;;;;;;0.80;0.80;;;-2.40;99.90;;;;;;5114572;28;20226;-82
2022/02/25 00:56:46;;;;;;;0.82;0.82;;;-2.40;99.90;;;;;;5123723;28;20207;-81
2022/02/25 00:59:12;;;;;;;0.80;0.80;;;-2.40;99.90;;;;;;5110922;28;20594;-81
2022/02/25 01:01:38;;;;;;;0.80;0.80;;;-2.30;99.90;;;;;;5116371;28;20206;-81
2022/02/25 01:04:04;;;;;;;0.88;0.88;;;-2.30;99.90;;;;;;5109367;28;20211;-81
2022/02/25 01:06:29;;;;;;;0.80;0.80;;;-2.30;99.90;;;;;;5126470;28;20207;-81
2022/02/25 01:08:55;;;;;;;0.90;0.90;;;-2.20;99.90;;;;;;5110317;28;20762;-81
2022/02/25 01:11:21;;;;;;;1.73;1.50;;;-2.20;99.90;;;;;;5127451;28;20210;-82
2022/02/25 01:13:47;;;;;;;0.80;0.80;;;-2.20;99.90;;;;;;5110721;28;20260;-81
2022/02/25 01:16:13;;;;;;;0.90;0.90;;;-2.20;99.90;;;;;;5126220;28;20194;-81
2022/02/25 01:18:39;;;;;;;5.53;2.80;;;-2.10;99.90;;;;;;5110596;28;20203;-81
2022/02/25 01:21:06;;;;;;;0.85;0.85;;;-2.10;99.90;;;;;;5128322;28;20259;-81
2022/02/25 01:23:33;;;;;;;0.80;0.80;;;-2.00;99.90;;;;;;5111205;28;20595;-81
2022/02/25 01:26:01;;;;;;;0.73;0.73;;;-2.00;99.90;;;;;;5113846;28;20700;-81
2022/02/25 01:28:27;;;;;;;0.77;0.77;;;-2.00;99.90;;;;;;5120091;27;20200;-81
2022/02/25 01:30:53;;;;;;;0.80;0.80;;;-2.00;99.90;;;;;;5112977;28;20692;-82
2022/02/25 01:33:19;;;;;;;0.90;0.90;;;-1.90;99.90;;;;;;5118252;27;20234;-83
2022/02/25 01:35:45;;;;;;;0.80;0.80;;;-1.90;99.90;;;;;;5106308;28;20307;-81
2022/02/25 01:38:10;;;;;;;0.80;0.80;;;-1.90;99.90;;;;;;5129974;27;20242;-81
2022/02/25 01:40:37;;;;;;;0.80;0.80;;;-1.90;99.90;;;;;;5113791;27;20213;-81
2022/02/25 01:43:03;;;;;;;1.30;1.20;;;-2.00;99.90;;;;;;5113106;28;20272;-81
2022/02/25 01:45:32;;;;;;;0.98;0.98;;;-2.00;99.90;;;;;;5129889;27;20200;-80
2022/02/25 01:47:58;;;;;;;0.80;0.80;;;-2.10;99.90;;;;;;5130059;27;20254;-81
2022/02/25 01:50:23;;;;;;;0.70;0.70;;;-2.20;99.90;;;;;;5130731;27;20223;-81
2022/02/25 01:53:05;;;;;;;0.80;0.80;;;-2.30;99.90;;;;;;5129778;27;20195;-80
2022/02/25 01:55:33;;;;;;;0.80;0.80;;;-2.40;99.90;;;;;;5126391;27;20752;-81
2022/02/25 01:57:59;;;;;;;1.17;1.15;;;-2.50;99.90;;;;;;5101931;27;20205;-81
2022/02/25 02:00:25;;;;;;;0.80;0.80;;;-2.60;99.90;;;;;;5128143;27;20211;-81
2022/02/25 02:02:51;;;;;;;0.77;0.77;;;-2.70;99.90;;;;;;5112281;28;20299;-81
2022/02/25 02:05:18;;;;;;;1.13;1.05;;;-2.70;99.90;;;;;;5114758;28;20210;-80
2022/02/25 02:07:44;;;;;;;0.90;0.90;;;-2.80;99.90;;;;;;5094518;28;20197;-80
2022/02/25 02:10:11;;;;;;;0.88;0.88;;;-2.90;99.90;;;;;;5113442;27;20259;-80
2022/02/25 02:12:36;;;;;;;0.75;0.75;;;-3.00;99.90;;;;;;5112469;28;20227;-80
2022/02/25 02:15:04;;;;;;;0.80;0.80;;;-3.00;99.90;;;;;;5113598;28;20242;-80
2022/02/25 02:17:31;;;;;;;0.80;0.80;;;-3.00;99.90;;;;;;5128959;27;20199;-80
2022/02/25 02:19:57;;;;;;;0.80;0.80;;;-3.10;99.90;;;;;;5118843;27;20211;-80
2022/02/25 02:22:26;;;;;;;0.90;0.90;;;-3.20;99.90;;;;;;5114829;27;20204;-80
2022/02/25 02:24:53;;;;;;;0.85;0.85;;;-3.10;99.90;;;;;;5108716;28;20208;-81
2022/02/25 02:27:19;;;;;;;0.70;0.70;;;-3.10;99.90;;;;;;5124379;27;20205;-81
2022/02/25 02:29:45;;;;;;;0.80;0.80;;;-3.10;99.90;;;;;;5128801;27;20259;-80
2022/02/25 02:32:11;;;;;;;0.80;0.80;;;-3.20;99.90;;;;;;5118542;27;20847;-80
2022/02/25 02:34:38;;;;;;;1.00;1.00;;;-3.20;99.90;;;;;;5112835;27;20231;-80
2022/02/25 02:37:07;;;;;;;1.25;1.23;;;-3.20;99.90;;;;;;5119246;27;20560;-80
2022/02/25 02:39:34;;;;;;;0.80;0.80;;;-3.20;99.90;;;;;;5120920;27;20280;-80
2022/02/25 02:42:00;;;;;;;2.85;2.65;;;-3.20;99.90;;;;;;5123365;27;20275;-81
2022/02/25 02:44:25;;;;;;;0.80;0.80;;;-3.30;99.90;;;;;;5101017;28;20295;-80
2022/02/25 02:46:51;;;;;;;0.85;0.85;;;-3.40;99.90;;;;;;5113961;28;20203;-82
2022/02/25 02:49:17;;;;;;;0.80;0.80;;;-3.40;99.90;;;;;;5131622;27;20195;-81
2022/02/25 02:51:43;;;;;;;0.90;0.90;;;-3.50;99.90;;;;;;5126509;27;20203;-80
2022/02/25 02:54:09;;;;;;;0.77;0.77;;;-3.50;99.90;;;;;;5129266;27;20725;-81
2022/02/25 02:56:36;;;;;;;0.80;0.80;;;-3.60;99.90;;;;;;5127158;27;20651;-80
2022/02/25 02:59:02;;;;;;;0.90;0.90;;;-3.60;99.90;;;;;;5130014;27;20219;-80
2022/02/25 03:01:30;;;;;;;0.90;0.90;;;-3.60;99.90;;;;;;5116017;27;20243;-81
2022/02/25 03:03:57;;;;;;;0.80;0.80;;;-3.70;99.90;;;;;;5111447;28;20263;-80
2022/02/25 03:06:25;;;;;;;1.30;1.20;;;-3.70;99.90;;;;;;5129857;27;20198;-81
2022/02/25 03:08:51;;;;;;;0.80;0.80;;;-3.70;99.90;;;;;;5106002;27;20204;-80
2022/02/25 03:11:17;;;;;;;0.80;0.80;;;-3.90;99.90;;;;;;5127887;27;20622;-80
2022/02/25 03:13:42;;;;;;;0.80;0.80;;;-3.90;99.90;;;;;;5128036;27;20259;-80
2022/02/25 03:16:08;;;;;;;0.90;0.90;;;-3.90;99.90;;;;;;5113865;27;20207;-80
2022/02/25 03:18:34;;;;;;;0.80;0.80;;;-4.00;99.90;;;;;;5129252;27;20203;-80
2022/02/25 03:21:00;;;;;;;0.80;0.80;;;-4.00;99.90;;;;;;5116601;27;20639;-80
2022/02/25 03:23:26;;;;;;;0.82;0.82;;;-4.00;99.90;;;;;;5119032;27;20612;-80
2022/02/25 03:25:52;;;;;;;0.80;0.80;;;-4.00;99.90;;;;;;5127931;27;20259;-80
2022/02/25 03:28:17;;;;;;;0.90;0.90;;;-3.90;99.90;;;;;;5133037;27;20198;-80
2022/02/25 03:30:43;;;;;;;0.80;0.80;;;-3.80;99.90;;;;;;5153293;27;20260;-80
2022/02/25 03:33:09;;;;;;;0.90;0.90;;;-3.90;99.90;;;;;;5152517;27;20188;-80
2022/02/25 03:35:35;;;;;;;0.85;0.85;;;-3.90;99.90;;;;;;5151527;27;20208;-79
2022/02/25 03:38:03;;;;;;;0.90;0.90;;;-4.00;99.90;;;;;;5151992;27;20199;-81
2022/02/25 03:40:29;;;;;;;0.75;0.75;;;-4.00;99.90;;;;;;5148689;27;20188;-79
2022/02/25 03:42:55;;;;;;;0.90;0.90;;;-3.90;99.90;;;;;;5118090;28;20208;-81
2022/02/25 03:45:21;;;;;;;0.80;0.80;;;-3.90;99.90;;;;;;5118284;28;21085;-81
2022/02/25 03:47:47;;;;;;;0.88;0.88;;;-4.00;99.90;;;;;;5151128;27;20229;-78
2022/02/25 03:50:13;;;;;;;0.80;0.80;;;-3.90;99.90;;;;;;5150066;27;20211;-79
2022/02/25 03:52:39;;;;;;;0.80;0.80;;;-4.00;99.90;;;;;;5116219;28;20225;-79
2022/02/25 03:55:06;;;;;;;0.90;0.90;;;-4.00;99.90;;;;;;5150467;27;20203;-79
2022/02/25 03:57:32;;;;;;;1.00;1.00;;;-4.00;99.90;;;;;;5129449;28;20211;-78
2022/02/25 03:59:58;;;;;;;0.90;0.90;;;-4.00;99.90;;;;;;5144775;27;20293;-78
2022/02/25 04:02:23;;;;;;;0.90;0.90;;;-4.00;99.90;;;;;;5111749;28;20200;-78
2022/02/25 04:04:49;;;;;;;0.80;0.80;;;-4.00;99.90;;;;;;5144408;27;20222;-77
2022/02/25 04:07:15;;;;;;;0.80;0.80;;;-4.00;99.90;;;;;;5129110;27;20283;-77
2022/02/25 04:09:40;;;;;;;0.90;0.90;;;-4.00;99.90;;;;;;5139922;27;20205;-77
2022/02/25 04:12:07;;;;;;;0.80;0.80;;;-4.00;99.90;;;;;;5141292;27;20209;-78
2022/02/25 04:14:32;;;;;;;0.80;0.80;;;-4.00;99.90;;;;;;5120993;27;20218;-79
2022/02/25 04:16:58;;;;;;;0.80;0.80;;;-3.90;99.90;;;;;;5122868;27;20286;-78
2022/02/25 04:19:24;;;;;;;0.88;0.88;;;-3.90;99.90;;;;;;5129990;27;20206;-79
2022/02/25 04:21:50;;;;;;;0.80;0.80;;;-3.90;99.90;;;;;;5120989;27;20200;-78
2022/02/25 04:24:16;;;;;;;0.90;0.90;;;-3.90;99.90;;;;;;5100601;28;20203;-79
2022/02/25 04:26:42;;;;;;;1.05;1.05;;;-3.80;99.90;;;;;;5127421;28;20195;-79
2022/02/25 04:29:08;;;;;;;0.90;0.90;;;-3.70;99.90;;;;;;5127679;28;20202;-80
2022/02/25 04:31:34;;;;;;;1.00;1.00;;;-3.70;99.90;;;;;;5128117;28;20248;-80
2022/02/25 04:34:00;;;;;;;0.80;0.80;;;-3.60;99.90;;;;;;5129002;28;20650;-80
2022/02/25 04:36:26;;;;;;;0.80;0.80;;;-3.50;99.90;;;;;;5127748;28;20199;-80
2022/02/25 04:38:53;;;;;;;0.90;0.90;;;-3.50;99.90;;;;;;5128962;27;20190;-80
2022/02/25 04:41:20;;;;;;;0.75;0.75;;;-3.50;99.90;;;;;;5130314;28;20780;-81
2022/02/25 04:43:46;;;;;;;0.80;0.80;;;-3.40;99.90;;;;;;5129530;28;20195;-80
2022/02/25 04:46:20;;;;;;;0.80;0.80;;;-3.30;99.90;;;;;;5107975;28;20282;-80
2022/02/25 04:48:46;;;;;;;0.93;0.93;;;-3.30;99.90;;;;;;5126210;28;20670;-80
2022/02/25 04:51:15;;;;;;;1.00;1.00;;;-3.20;99.90;;;;;;5128446;28;20198;-79
2022/02/25 04:53:41;;;;;;;0.88;0.88;;;-3.10;99.90;;;;;;5099837;28;20196;-79
2022/02/25 04:56:07;;;;;;;0.88;0.88;;;-3.10;99.90;;;;;;5109549;28;20256;-79
2022/02/25 04:58:33;;;;;;;0.90;0.90;;;-3.00;99.90;;;;;;5127884;28;20203;-79
2022/02/25 05:01:01;;;;;;;0.98;0.98;;;-2.90;99.90;;;;;;5114343;28;20287;-80
2022/02/25 05:03:27;;;;;;;0.90;0.90;;;-2.90;99.90;;;;;;5118372;27;20256;-78
2022/02/25 05:05:53;;;;;;;1.17;1.17;;;-2.90;99.90;;;;;;5120382;27;20298;-79
2022/02/25 05:08:19;;;;;;;0.80;0.80;;;-2.80;99.90;;;;;;5119267;27;20227;-80
2022/02/25 05:10:45;;;;;;;0.80;0.80;;;-2.80;99.90;;;;;;5113517;28;20207;-80
2022/02/25 05:13:10;;;;;;;0.80;0.80;;;-2.80;99.90;;;;;;5131686;27;20676;-80
2022/02/25 05:21:05;;;;;;;0.98;0.98;;;-2.80;99.90;;;;;;5116032;28;20210;-79
2022/02/25 05:23:31;;;;;;;0.90;0.90;;;-2.90;99.90;;;;;;5123590;27;20195;-80
2022/02/25 05:25:57;;;;;;;0.70;0.70;;;-2.90;99.90;;;;;;5131157;27;20199;-79
2022/02/25 05:28:23;;;;;;;0.90;0.90;;;-2.90;99.90;;;;;;5126121;27;20199;-79
2022/02/25 05:30:48;;;;;;;0.80;0.80;;;-3.00;99.90;;;;;;5119091;27;20190;-80
2022/02/25 05:33:14;;;;;;;0.90;0.90;;;-3.10;99.90;;;;;;5126243;27;20206;-79
2022/02/25 05:35:43;;;;;;;0.73;0.73;;;-3.10;99.90;;;;;;5129933;27;20199;-80
2022/02/25 05:38:08;;;;;;;0.90;0.90;;;-3.20;99.90;;;;;;5131192;27;20712;-79
2022/02/25 05:40:34;;;;;;;0.80;0.80;;;-3.30;99.90;;;;;;5114604;27;20196;-80
2022/02/25 05:43:00;;;;;;;0.80;0.80;;;-3.20;99.90;;;;;;5131724;27;20226;-80
2022/02/25 05:45:27;;;;;;;0.90;0.90;;;-3.20;99.90;;;;;;5113274;28;20204;-82
2022/02/25 05:47:53;;;;;;;0.80;0.80;;;-3.20;99.90;;;;;;5113048;27;20200;-79
2022/02/25 05:50:20;;;;;;;0.68;0.68;;;-3.10;99.90;;;;;;5115276;28;20268;-80
2022/02/25 05:52:47;;;;;;;14.52;1.40;;;-3.20;99.90;;;;;;5131125;27;20689;-79
2022/02/25 05:55:15;;;;;;;0.90;0.90;;;-3.20;99.90;;;;;;5112422;28;20230;-80
2022/02/25 05:57:43;;;;;;;0.80;0.80;;;-3.30;99.90;;;;;;5113488;27;20231;-79
2022/02/25 06:00:11;;;;;;;0.90;0.90;;;-3.40;99.90;;;;;;5114807;28;20204;-80
2022/02/25 06:02:40;;;;;;;0.80;0.80;;;-3.40;99.90;;;;;;5129401;27;20662;-79
2022/02/25 06:05:07;;;;;;;0.70;0.70;;;-3.50;99.90;;;;;;5113343;28;20203;-79
2022/02/25 06:07:32;;;;;;;0.80;0.80;;;-3.50;99.90;;;;;;5116419;27;20208;-80
2022/02/25 06:09:59;;;;;;;0.73;0.73;;;-3.60;99.90;;;;;;5109328;28;20199;-80
2022/02/25 06:12:24;;;;;;;0.80;0.80;;;-3.60;99.90;;;;;;5104444;27;20207;-80
2022/02/25 06:14:50;;;;;;;0.90;0.90;;;-3.60;99.90;;;;;;5120765;27;20719;-79
2022/02/25 06:17:16;;;;;;;0.80;0.80;;;-3.60;99.90;;;;;;5121637;27;20657;-80
2022/02/25 06:19:44;;;;;;;0.80;0.80;;;-3.70;99.90;;;;;;5130931;27;20207;-79
2022/02/25 06:22:10;;;;;;;0.90;0.90;;;-3.70;99.90;;;;;;5128894;27;20214;-79
2022/02/25 06:24:36;;;;;;;0.90;0.90;;;-3.80;99.90;;;;;;5122673;27;20214;-80
2022/02/25 06:27:02;;;;;;;0.80;0.80;;;-3.80;99.90;;;;;;5111806;28;20286;-80
2022/02/25 06:29:28;;;;;;;0.90;0.90;;;-3.70;99.90;;;;;;5124797;27;20224;-80
2022/02/25 06:31:54;;;;;;;0.90;0.90;;;-3.70;99.90;;;;;;5100900;27;20756;-79
2022/02/25 06:34:23;;;;;;;0.80;0.80;;;-3.70;99.90;;;;;;5127753;27;20678;-80
2022/02/25 06:36:51;;;;;;;0.90;0.90;;;-3.70;99.90;;;;;;5131297;27;20286;-81
2022/02/25 06:39:20;;;;;;;0.90;0.90;;;-3.70;99.90;;;;;;5127669;27;20207;-80
2022/02/25 06:41:46;;;;;;;0.85;0.85;;;-3.70;99.90;;;;;;5113144;28;20709;-80
2022/02/25 06:44:14;;;;;;;0.80;0.80;;;-3.60;99.90;;;;;;5128951;27;20226;-80
2022/02/25 06:46:40;;;;;;;0.80;0.80;;;-3.60;99.90;;;;;;5129753;27;20252;-80
2022/02/25 06:49:06;;;;;;;0.85;0.85;;;-3.60;99.90;;;;;;5130372;27;20203;-79
2022/02/25 06:51:37;;;;;;;0.80;0.80;;;-3.70;99.90;;;;;;5112806;28;20686;-80
2022/02/25 06:54:03;;;;;;;1.02;1.02;;;-3.60;99.90;;;;;;5131093;27;20579;-80
2022/02/25 06:56:31;;;;;;;0.88;0.88;;;-3.60;99.90;;;;;;5110860;27;20200;-80
2022/02/25 06:59:02;;;;;;;0.90;0.90;;;-3.50;99.90;;;;;;5111033;28;20544;-82
2022/02/25 07:01:30;;;;;;;1.00;1.00;;;-3.50;99.90;;;;;;5110113;28;20195;-81
2022/02/25 07:03:58;;;;;;;0.80;0.80;;;-3.40;99.90;;;;;;5094914;28;20571;-81
2022/02/25 07:06:28;;;;;;;0.80;0.80;;;-3.40;99.90;;;;;;5129366;27;20614;-81
2022/02/25 07:09:01;;;;;;;0.95;0.95;;;-3.30;99.90;;;;;;5108205;28;20199;-80
2022/02/25 07:11:31;;;;;;;0.82;0.82;;;-3.20;99.90;;;;;;5114905;27;20260;-80
2022/02/25 07:13:57;;;;;;;0.85;0.85;;;-3.20;99.90;;;;;;5111048;28;20203;-81
2022/02/25 07:16:23;;;;;;;0.80;0.80;;;-3.10;99.90;;;;;;5112225;27;20203;-80
2022/02/25 07:18:52;;;;;;;0.73;0.73;;;-3.00;99.90;;;;;;5108541;28;20223;-81
2022/02/25 07:21:18;;;;;;;0.73;0.73;;;-3.00;99.90;;;;;;5128349;27;20294;-80
2022/02/25 07:23:43;;;;;;;0.80;0.80;;;-2.90;99.90;;;;;;5111938;28;20299;-81
2022/02/25 07:26:09;;;;;;;0.70;0.70;;;-2.90;99.90;;;;;;5128004;27;20207;-80
2022/02/25 07:28:37;;;;;;;0.90;0.90;;;-2.90;99.90;;;;;;5112059;28;20195;-81
2022/02/25 07:31:04;;;;;;;0.80;0.80;;;-2.90;99.90;;;;;;5110946;28;20565;-81
2022/02/25 07:33:30;;;;;;;0.90;0.90;;;-2.80;99.90;;;;;;5127687;27;20203;-81
2022/02/25 07:35:56;;;;;;;0.90;0.90;;;-2.70;99.90;;;;;;5120293;27;20207;-81
2022/02/25 07:38:23;;;;;;;0.80;0.80;;;-2.70;99.90;;;;;;5121547;27;20199;-81
2022/02/25 07:40:48;;;;;;;0.90;0.90;;;-2.60;99.90;;;;;;5108081;28;20739;-80
2022/02/25 07:43:19;;;;;;;0.90;0.90;;;-2.60;99.90;;;;;;5111721;28;20350;-80
2022/02/25 07:45:52;;;;;;;0.80;0.80;;;-2.40;99.90;;;;;;5110449;28;20576;-80
2022/02/25 07:48:19;;;;;;;0.70;0.70;;;-2.30;99.90;;;;;;5119300;27;20251;-81
2022/02/25 07:50:45;;;;;;;0.70;0.70;;;-2.20;99.90;;;;;;5121513;27;20714;-80
2022/02/25 07:53:15;;;;;;;0.70;0.70;;;-2.00;99.90;;;;;;5121799;27;20199;-81
2022/02/25 07:55:41;;;;;;;0.90;0.90;;;-1.90;99.90;;;;;;5098135;28;20585;-81
2022/02/25 07:58:06;;;;;;;0.88;0.88;;;-1.90;99.90;;;;;;5123395;27;20206;-80
2022/02/25 08:00:33;;;;;;;0.80;0.80;;;-1.80;99.90;;;;;;5113037;27;20302;-81
2022/02/25 08:03:01;;;;;;;0.80;0.80;;;-1.80;99.90;;;;;;5130275;27;20218;-80
2022/02/25 08:05:28;;;;;;;0.70;0.70;;;-1.70;99.90;;;;;;5127108;27;20207;-80
2022/02/25 08:07:56;;;;;;;0.80;0.80;;;-1.50;99.90;;;;;;5127378;27;20634;-80
2022/02/25 08:10:22;;;;;;;0.80;0.80;;;-1.40;99.90;;;;;;5108552;28;20199;-80
2022/02/25 08:12:47;;;;;;;1.05;1.05;;;-1.30;99.90;;;;;;5111517;28;20195;-81
2022/02/25 08:15:15;;;;;;;0.80;0.80;;;-1.10;99.90;;;;;;5129435;27;20194;-81
2022/02/25 08:17:41;;;;;;;0.80;0.80;;;-1.00;99.90;;;;;;5110135;28;20661;-80
2022/02/25 08:20:07;;;;;;;0.70;0.70;;;-0.80;99.90;;;;;;5128383;27;20211;-81
2022/02/25 08:22:33;;;;;;;0.60;0.60;;;-0.70;99.90;;;;;;5111512;27;20693;-80
2022/02/25 08:24:59;;;;;;;0.68;0.68;;;-0.50;99.90;;;;;;5107254;28;20207;-82
2022/02/25 08:27:25;;;;;;;0.60;0.60;;;-0.30;99.90;;;;;;5114795;27;20200;-81
2022/02/25 08:29:52;;;;;;;0.80;0.80;;;-0.20;99.90;;;;;;5116829;28;20568;-81
2022/02/25 08:32:17;;;;;;;0.90;0.90;;;0.00;99.90;;;;;;5116850;28;20605;-81
2022/02/25 08:34:43;;;;;;;0.60;0.60;;;0.10;99.90;;;;;;5119756;27;20260;-81
2022/02/25 08:37:09;;;;;;;0.70;0.70;;;0.40;99.90;;;;;;5105971;28;20239;-80
2022/02/25 08:39:35;;;;;;;0.70;0.70;;;0.60;99.90;;;;;;5123825;27;20204;-81
2022/02/25 08:42:01;;;;;;;0.50;0.50;;;0.90;99.90;;;;;;5110880;27;20722;-82
2022/02/25 08:44:27;;;;;;;0.70;0.70;;;1.10;99.90;;;;;;5125178;27;20203;-81
2022/02/25 08:46:53;;;;;;;0.65;0.65;;;1.30;99.90;;;;;;5127074;27;20212;-80
2022/02/25 08:49:18;;;;;;;0.60;0.60;;;1.60;99.90;;;;;;5101024;28;20207;-82
2022/02/25 08:51:47;;;;;;;0.57;0.57;;;1.70;99.90;;;;;;5131983;27;20211;-81
2022/02/25 08:54:16;;;;;;;0.70;0.70;;;1.80;99.90;;;;;;5130644;27;20677;-81
2022/02/25 08:56:42;;;;;;;0.60;0.60;;;2.00;99.90;;;;;;5131677;27;20299;-81
2022/02/25 08:59:08;;;;;;;0.80;0.80;;;2.20;99.90;;;;;;5116199;28;20191;-82
2022/02/25 09:01:34;;;;;;;0.70;0.70;;;2.50;99.90;;;;;;5114732;28;20218;-82
2022/02/25 09:04:01;;;;;;;1.58;1.48;;;2.70;99.90;;;;;;5113148;27;20192;-82
2022/02/25 09:06:29;;;;;;;0.60;0.60;;;3.10;99.90;;;;;;5131180;27;20210;-82
2022/02/25 09:08:56;;;;;;;0.70;0.70;;;3.30;99.90;;;;;;5109972;28;20200;-82
2022/02/25 09:11:26;;;;;;;0.70;0.70;;;3.50;99.90;;;;;;5130390;27;20214;-82
2022/02/25 09:13:51;;;;;;;0.60;0.60;;;3.30;99.90;;;;;;5116219;27;20302;-83
2022/02/25 09:16:17;;;;;;;0.70;0.70;;;3.50;99.90;;;;;;5114387;28;20420;-83
2022/02/25 09:18:44;;;;;;;0.70;0.70;;;3.20;99.90;;;;;;5117575;27;20208;-82
2022/02/25 09:21:13;;;;;;;0.82;0.82;;;3.00;99.90;;;;;;5108351;28;20261;-82
2022/02/25 09:23:38;;;;;;;0.60;0.60;;;3.10;99.90;;;;;;5120258;27;20214;-82
2022/02/25 09:26:06;;;;;;;1.25;1.17;;;3.10;99.90;;;;;;5107237;28;20203;-82
2022/02/25 09:28:32;;;;;;;0.80;0.80;;;2.90;99.90;;;;;;5121381;27;20554;-82
2022/02/25 09:30:58;;;;;;;5.78;1.67;;;2.80;99.90;;;;;;5115430;27;20259;-82
2022/02/25 09:33:23;;;;;;;0.63;0.63;;;3.10;99.90;;;;;;5130910;27;20198;-83
2022/02/25 09:35:49;;;;;;;0.60;0.60;;;3.40;99.90;;;;;;5129019;27;20342;-83
2022/02/25 09:38:15;;;;;;;0.63;0.63;;;3.70;99.90;;;;;;5125747;27;20207;-82
2022/02/25 09:40:41;;;;;;;0.52;0.52;;;4.10;99.90;;;;;;5129717;27;20259;-82
2022/02/25 09:43:29;;;;;;;0.70;0.70;;;4.40;99.90;;;;;;5130066;27;20290;-83
2022/02/25 09:45:55;;;;;;;0.82;0.82;;;4.60;99.90;;;;;;5124812;27;20210;-83
2022/02/25 09:48:21;;;;;;;0.60;0.60;;;5.10;99.90;;;;;;5102205;27;20282;-83
2022/02/25 09:50:51;;;;;;;0.60;0.60;;;5.50;99.90;;;;;;5113094;28;20294;-83
2022/02/25 09:53:19;;;;;;;0.60;0.60;;;5.70;99.90;;;;;;5129906;27;20195;-83
2022/02/25 09:55:51;;;;;;;0.70;0.70;;;6.00;99.90;;;;;;5129385;27;20220;-84
2022/02/25 09:58:17;;;;;;;0.82;0.82;;;6.20;99.90;;;;;;5113023;28;20203;-84
2022/02/25 10:00:43;;;;;;;0.60;0.60;;;6.30;99.90;;;;;;5130784;27;20206;-84
2022/02/25 10:03:30;;;;;;;0.70;0.70;;;6.40;99.90;;;;;;5131103;27;20295;-84
2022/02/25 10:06:04;;;;;;;0.82;0.80;;;6.30;99.90;;;;;;5113582;27;20766;-83
2022/02/25 10:08:32;;;;;;;0.60;0.60;;;6.50;99.90;;;;;;5130608;27;20673;-83
2022/02/25 10:10:59;;;;;;;0.60;0.60;;;6.40;99.90;;;;;;5112498;28;20195;-83
2022/02/25 10:13:27;;;;;;;0.80;0.80;;;6.10;99.90;;;;;;5095304;28;20196;-83
2022/02/25 10:15:59;;;;;;;0.57;0.57;;;6.20;99.90;;;;;;5113242;28;20216;-84
2022/02/25 10:18:26;;;;;;;0.70;0.70;;;6.30;99.90;;;;;;5129805;27;20670;-88
2022/02/25 10:21:07;;;;;;;0.70;0.70;;;6.00;99.90;;;;;;5111863;27;20697;-83
2022/02/25 10:23:37;;;;;;;0.60;0.60;;;5.70;99.90;;;;;;5130283;27;20589;-84
2022/02/25 10:26:14;;;;;;;0.57;0.57;;;5.50;99.90;;;;;;5111976;27;20207;-83
2022/02/25 10:28:47;;;;;;;0.60;0.60;;;5.50;99.90;;;;;;5129502;27;20198;-83
2022/02/25 10:31:33;;;;;;;0.65;0.65;;;5.30;99.90;;;;;;5112189;27;20188;-83
2022/02/25 10:34:04;;;;;;;0.68;0.68;;;5.40;99.90;;;;;;5095865;27;20280;-83
2022/02/25 10:36:47;;;;;;;0.65;0.65;;;5.70;99.90;;;;;;5130568;27;20256;-83
2022/02/25 10:39:21;;;;;;;0.65;0.65;;;5.90;99.90;;;;;;5099525;27;20601;-83
2022/02/25 10:42:07;;;;;;;0.73;0.73;;;6.30;99.90;;;;;;5127575;27;20206;-83
2022/02/25 10:45:07;;;;;;;1.27;1.17;;;6.40;99.90;;;;;;5125863;27;20678;-84
2022/02/25 10:47:45;;;;;;;0.80;0.80;;;6.60;99.90;;;;;;5105241;28;20238;-84
2022/02/25 10:50:15;;;;;;;0.80;0.80;;;6.50;99.90;;;;;;5112808;28;20203;-82
2022/02/25 10:52:50;;;;;;;0.60;0.60;;;6.80;99.90;;;;;;5128588;27;20206;-82
2022/02/25 10:55:19;;;;;;;0.70;0.70;;;7.10;99.90;;;;;;5120576;27;20219;-82
2022/02/25 10:57:46;;;;;;;0.50;0.50;;;7.60;99.90;;;;;;5102572;28;20606;-83
2022/02/25 11:00:14;;;;;;;0.80;0.80;;;7.70;99.90;;;;;;5128355;27;20588;-85
2022/02/25 11:02:47;;;;;;;0.70;0.70;;;7.90;99.90;;;;;;5129314;27;20264;-86
2022/02/25 11:05:26;;;;;;;0.55;0.55;;;8.20;99.90;;;;;;5128387;27;20215;-86
2022/02/25 11:08:16;;;;;;;;;;;;;;;;;;;;;
2022/02/25 11:10:47;;;;;;;0.70;0.70;;;8.10;99.90;;;;;;5116526;27;20202;-86
2022/02/25 11:13:15;;;;;;;0.60;0.60;;;8.30;99.90;;;;;;5130748;27;20680;-85
2022/02/25 11:15:45;;;;;;;0.55;0.55;;;8.30;99.90;;;;;;5118388;27;20207;-85
2022/02/25 11:18:11;;;;;;;0.70;0.70;;;8.00;99.90;;;;;;5128309;27;20203;-84
2022/02/25 11:20:40;;;;;;;0.60;0.60;;;7.70;99.90;;;;;;5120474;27;20234;-84
2022/02/25 11:23:16;;;;;;;0.70;0.70;;;7.60;99.90;;;;;;5103116;28;20195;-85
2022/02/25 11:25:44;;;;;;;0.82;0.82;;;7.60;99.90;;;;;;5128972;27;20210;-84
2022/02/25 11:28:11;;;;;;;0.70;0.70;;;7.80;99.90;;;;;;5120810;27;20211;-84
2022/02/25 11:31:00;;;;;;;0.70;0.70;;;7.50;99.90;;;;;;5110784;27;20200;-84
2022/02/25 11:34:00;;;;;;;0.70;0.70;;;7.70;99.90;;;;;;5101320;28;20207;-84
2022/02/25 11:36:52;;;;;;;0.70;0.70;;;7.70;99.90;;;;;;5128896;27;20230;-85
2022/02/25 11:39:26;;;;;;;0.70;0.70;;;8.00;99.90;;;;;;5111943;27;20211;-84
2022/02/25 11:41:54;;;;;;;0.60;0.60;;;8.20;99.90;;;;;;5109399;28;20204;-85
2022/02/25 11:44:20;;;;;;;0.70;0.70;;;8.60;99.90;;;;;;5111824;27;20207;-85
2022/02/25 11:46:46;;;;;;;0.60;0.60;;;8.70;99.90;;;;;;5109890;28;20202;-82
2022/02/25 11:49:12;;;;;;;0.60;0.60;;;8.50;99.90;;;;;;5116008;27;20208;-84
2022/02/25 11:52:08;;;;;;;0.65;0.65;;;8.30;99.90;;;;;;5116500;27;20615;-84
2022/02/25 11:54:46;;;;;;;0.70;0.70;;;8.10;99.90;;;;;;5110812;27;20223;-84
2022/02/25 11:57:12;;;;;;;0.60;0.60;;;8.30;99.90;;;;;;5113315;27;20658;-83
2022/02/25 11:59:38;;;;;;;0.70;0.70;;;8.20;99.90;;;;;;5110129;28;21844;-83
2022/02/25 12:02:09;;;;;;;1.20;1.10;;;8.30;99.90;;;;;;5110080;28;20203;-83
2022/02/25 12:04:36;;;;;;;0.73;0.73;;;8.00;99.90;;;;;;5124018;27;20195;-83
2022/02/25 12:07:12;;;;;;;0.60;0.60;;;8.00;99.90;;;;;;5114209;27;20633;-83
2022/02/25 12:09:45;;;;;;;0.80;0.80;;;7.90;99.90;;;;;;5122338;27;20203;-82
2022/02/25 12:12:23;;;;;;;0.70;0.70;;;7.70;99.90;;;;;;5114415;27;20212;-83
2022/02/25 12:15:04;;;;;;;0.57;0.57;;;7.60;99.90;;;;;;5107686;28;20202;-83
2022/02/25 12:17:47;;;;;;;0.70;0.70;;;7.30;99.90;;;;;;5111564;28;20204;-83
2022/02/25 12:20:16;;;;;;;0.70;0.70;;;6.80;99.90;;;;;;5111183;28;20280;-82
2022/02/25 12:23:08;;;;;;;0.68;0.68;;;6.50;99.90;;;;;;5112028;27;20279;-83
2022/02/25 12:25:40;;;;;;;0.70;0.70;;;6.40;99.90;;;;;;5127372;27;20290;-82
2022/02/25 12:28:27;;;;;;;0.80;0.80;;;6.20;99.90;;;;;;5128355;27;20198;-83
2022/02/25 12:31:09;;;;;;;0.70;0.70;;;6.20;99.90;;;;;;5094875;28;20609;-83
2022/02/25 12:33:44;;;;;;;0.63;0.63;;;6.20;99.90;;;;;;5110778;28;20204;-83
2022/02/25 12:36:16;;;;;;;0.73;0.73;;;6.40;99.90;;;;;;5111422;28;20207;-82
2022/02/25 12:38:49;;;;;;;0.70;0.70;;;6.70;99.90;;;;;;5126723;28;20203;-84
2022/02/25 12:41:21;;;;;;;0.70;0.70;;;6.90;99.90;;;;;;5128111;28;20618;-86
2022/02/25 12:43:50;;;;;;;0.60;0.60;;;6.90;99.90;;;;;;5111449;28;20290;-84
2022/02/25 12:46:21;;;;;;;0.70;0.70;;;6.60;99.90;;;;;;5112694;28;20567;-84
2022/02/25 12:48:49;;;;;;;0.60;0.60;;;6.50;99.90;;;;;;5092356;28;20192;-83
2022/02/25 12:51:16;;;;;;;0.60;0.60;;;6.40;99.90;;;;;;5110616;28;20535;-82
2022/02/25 12:53:53;;;;;;;0.60;0.60;;;6.30;99.90;;;;;;5112051;28;20669;-82
2022/02/25 12:56:42;;;;;;;0.70;0.70;;;6.00;99.90;;;;;;5120585;28;20207;-83
2022/02/25 12:59:10;;;;;;;0.60;0.60;;;6.00;99.90;;;;;;5109183;28;20541;-83
2022/02/25 13:01:50;;;;;;;0.70;0.70;;;6.20;99.90;;;;;;5108936;28;20196;-84